createdAt,value
2022-11-10T00:00:04.469Z,10.6
2022-11-10T00:01:04.884Z,10.6
2022-11-10T00:02:05.290Z,10.6
2022-11-10T00:03:05.696Z,10.6
2022-11-10T00:04:06.080Z,10.6
2022-11-10T00:05:06.512Z,10.6
2022-11-10T00:06:06.896Z,10.6
2022-11-10T00:07:07.382Z,10.6
2022-11-10T00:08:07.821Z,10.6
2022-11-10T00:09:08.315Z,10.6
2022-11-10T00:10:08.867Z,10.6
2022-11-10T00:11:09.289Z,10.6
2022-11-10T00:12:09.795Z,10.6
2022-11-10T00:13:10.204Z,10.6
2022-11-10T00:14:10.585Z,10.6
2022-11-10T00:15:11.028Z,10.6
2022-11-10T00:16:11.432Z,10.7
2022-11-10T00:17:11.813Z,10.7
2022-11-10T00:18:12.231Z,10.7
2022-11-10T00:19:12.636Z,10.7
2022-11-10T00:20:13.077Z,10.6
2022-11-10T00:21:13.493Z,10.6
2022-11-10T00:22:13.900Z,10.6
2022-11-10T00:23:14.322Z,10.6
2022-11-10T00:24:14.735Z,10.6
2022-11-10T00:25:15.230Z,10.6
2022-11-10T00:26:15.653Z,10.6
2022-11-10T00:27:16.048Z,10.6
2022-11-10T00:28:16.464Z,10.6
2022-11-10T00:29:16.893Z,10.6
2022-11-10T00:30:17.289Z,10.6
2022-11-10T00:31:17.672Z,10.6
2022-11-10T00:32:18.089Z,10.6
2022-11-10T00:33:18.794Z,10.6
2022-11-10T00:34:19.363Z,10.6
2022-11-10T00:35:19.767Z,10.6
2022-11-10T00:36:20.185Z,10.6
2022-11-10T00:37:20.597Z,10.6
2022-11-10T00:38:21.006Z,10.6
2022-11-10T00:39:21.379Z,10.6
2022-11-10T00:40:21.828Z,10.6
2022-11-10T00:41:22.214Z,10.6
2022-11-10T00:42:22.613Z,10.6
2022-11-10T00:43:26.562Z,10.6
2022-11-10T00:44:27.368Z,10.6
2022-11-10T00:45:27.782Z,10.6
2022-11-10T00:46:28.183Z,10.6
2022-11-10T00:47:28.603Z,10.5
2022-11-10T00:48:29.018Z,10.5
2022-11-10T00:49:29.431Z,10.5
2022-11-10T00:50:29.833Z,10.5
2022-11-10T00:51:30.263Z,10.5
2022-11-10T00:52:30.641Z,10.5
2022-11-10T00:53:31.047Z,10.5
2022-11-10T00:54:31.420Z,10.5
2022-11-10T00:55:31.850Z,10.5
2022-11-10T00:56:32.279Z,10.5
2022-11-10T00:57:32.792Z,10.4
2022-11-10T00:58:33.195Z,10.4
2022-11-10T00:59:33.617Z,10.4
2022-11-10T01:00:34.059Z,10.4
2022-11-10T01:01:34.472Z,10.4
2022-11-10T01:02:34.895Z,10.4
2022-11-10T01:03:35.394Z,10.4
2022-11-10T01:04:35.784Z,10.3
2022-11-10T01:05:36.225Z,10.3
2022-11-10T01:06:36.681Z,10.3
2022-11-10T01:07:37.168Z,10.3
2022-11-10T01:08:37.552Z,10.3
2022-11-10T01:09:37.927Z,10.3
2022-11-10T01:10:38.458Z,10.3
2022-11-10T01:11:38.842Z,10.3
2022-11-10T01:12:39.258Z,10.3
2022-11-10T01:13:39.666Z,10.3
2022-11-10T01:14:40.078Z,10.2
2022-11-10T01:15:40.517Z,10.2
2022-11-10T01:16:40.916Z,10.2
2022-11-10T01:17:41.335Z,10.2
2022-11-10T01:18:41.747Z,10.2
2022-11-10T01:19:42.165Z,10.2
2022-11-10T01:20:42.603Z,10.2
2022-11-10T01:21:43.005Z,10.2
2022-11-10T01:22:43.376Z,10.2
2022-11-10T01:23:43.824Z,10.2
2022-11-10T01:24:44.228Z,10.2
2022-11-10T01:25:44.658Z,10.2
2022-11-10T01:26:45.059Z,10.2
2022-11-10T01:27:45.457Z,10.2
2022-11-10T01:28:45.869Z,10.2
2022-11-10T01:29:46.257Z,10.2
2022-11-10T01:30:46.740Z,10.2
2022-11-10T01:31:47.116Z,10.2
2022-11-10T01:32:47.510Z,10.1
2022-11-10T01:33:47.939Z,10.1
2022-11-10T01:34:48.335Z,10.1
2022-11-10T01:35:48.746Z,10.1
2022-11-10T01:36:49.124Z,10.1
2022-11-10T01:37:49.499Z,10.1
2022-11-10T01:38:49.891Z,10.1
2022-11-10T01:39:50.311Z,10.1
2022-11-10T01:40:50.793Z,10
2022-11-10T01:41:51.214Z,10
2022-11-10T01:42:51.640Z,10
2022-11-10T01:43:52.036Z,10
2022-11-10T01:44:52.456Z,10
2022-11-10T01:45:52.914Z,10
2022-11-10T01:46:53.326Z,10
2022-11-10T01:47:53.731Z,10
2022-11-10T01:48:54.149Z,10
2022-11-10T01:49:54.580Z,10
2022-11-10T01:50:54.998Z,10
2022-11-10T01:51:55.419Z,10
2022-11-10T01:52:55.836Z,9.9
2022-11-10T01:53:56.244Z,9.9
2022-11-10T01:54:56.642Z,9.9
2022-11-10T01:55:57.050Z,9.9
2022-11-10T01:56:57.477Z,9.9
2022-11-10T01:57:57.921Z,9.9
2022-11-10T01:58:58.311Z,9.9
2022-11-10T01:59:58.720Z,9.9
2022-11-10T02:00:59.317Z,9.9
2022-11-10T02:01:59.735Z,9.9
2022-11-10T02:03:00.116Z,9.9
2022-11-10T02:04:00.507Z,9.9
2022-11-10T02:05:00.920Z,9.9
2022-11-10T02:06:01.354Z,9.9
2022-11-10T02:07:01.803Z,9.9
2022-11-10T02:08:02.280Z,9.9
2022-11-10T02:09:02.679Z,9.9
2022-11-10T02:10:03.084Z,9.9
2022-11-10T02:11:03.515Z,9.9
2022-11-10T02:12:03.908Z,9.9
2022-11-10T02:13:04.445Z,9.8
2022-11-10T02:14:04.822Z,9.8
2022-11-10T02:15:05.227Z,9.8
2022-11-10T02:16:05.757Z,9.8
2022-11-10T02:17:06.155Z,9.8
2022-11-10T02:18:06.527Z,9.8
2022-11-10T02:19:06.953Z,9.8
2022-11-10T02:20:07.380Z,9.7
2022-11-10T02:21:07.960Z,9.7
2022-11-10T02:22:08.341Z,9.7
2022-11-10T02:23:08.756Z,9.7
2022-11-10T02:24:09.136Z,9.7
2022-11-10T02:25:09.537Z,9.7
2022-11-10T02:26:09.960Z,9.7
2022-11-10T02:27:10.375Z,9.6
2022-11-10T02:28:10.901Z,9.6
2022-11-10T02:29:11.328Z,9.6
2022-11-10T02:30:11.743Z,9.6
2022-11-10T02:31:12.184Z,9.6
2022-11-10T02:32:12.586Z,9.6
2022-11-10T02:33:12.995Z,9.6
2022-11-10T02:34:13.385Z,9.6
2022-11-10T02:35:13.796Z,9.6
2022-11-10T02:36:14.264Z,9.6
2022-11-10T02:37:14.680Z,9.6
2022-11-10T02:38:15.105Z,9.6
2022-11-10T02:39:15.519Z,9.6
2022-11-10T02:40:15.930Z,9.6
2022-11-10T02:41:16.341Z,9.5
2022-11-10T02:42:16.782Z,9.5
2022-11-10T02:43:17.308Z,9.6
2022-11-10T02:44:17.700Z,9.6
2022-11-10T02:45:18.082Z,9.5
2022-11-10T02:46:18.577Z,9.5
2022-11-10T02:47:18.951Z,9.5
2022-11-10T02:48:19.345Z,9.5
2022-11-10T02:49:19.724Z,9.5
2022-11-10T02:50:20.122Z,9.5
2022-11-10T02:51:20.637Z,9.5
2022-11-10T02:52:21.037Z,9.5
2022-11-10T02:53:21.722Z,9.5
2022-11-10T02:54:22.405Z,9.5
2022-11-10T02:55:22.788Z,9.5
2022-11-10T02:56:23.240Z,9.5
2022-11-10T02:57:23.656Z,9.5
2022-11-10T02:58:24.066Z,9.5
2022-11-10T02:59:24.492Z,9.5
2022-11-10T03:00:24.869Z,9.5
2022-11-10T03:01:25.345Z,9.5
2022-11-10T03:02:31.067Z,9.5
2022-11-10T03:03:32.580Z,9.5
2022-11-10T03:04:33.115Z,9.5
2022-11-10T03:05:33.493Z,9.5
2022-11-10T03:06:34.076Z,9.5
2022-11-10T03:07:34.533Z,9.5
2022-11-10T03:08:34.944Z,9.5
2022-11-10T03:09:35.358Z,9.5
2022-11-10T03:10:35.748Z,9.5
2022-11-10T03:11:36.158Z,9.5
2022-11-10T03:12:36.571Z,9.5
2022-11-10T03:13:58.891Z,9.5
2022-11-10T03:15:01.138Z,9.5
2022-11-10T03:16:01.561Z,9.5
2022-11-10T03:17:01.957Z,9.4
2022-11-10T03:18:02.352Z,9.4
2022-11-10T03:19:02.765Z,9.4
2022-11-10T03:20:03.163Z,9.4
2022-11-10T03:21:03.580Z,9.4
2022-11-10T03:22:04.008Z,9.4
2022-11-10T03:23:04.425Z,9.4
2022-11-10T03:24:04.840Z,9.4
2022-11-10T03:25:05.265Z,9.4
2022-11-10T03:26:05.682Z,9.4
2022-11-10T03:27:06.207Z,9.4
2022-11-10T03:28:06.625Z,9.4
2022-11-10T03:29:07.075Z,9.4
2022-11-10T03:30:07.484Z,9.4
2022-11-10T03:31:07.904Z,9.4
2022-11-10T03:32:08.343Z,9.4
2022-11-10T03:33:08.761Z,9.4
2022-11-10T03:34:09.236Z,9.4
2022-11-10T03:35:09.682Z,9.4
2022-11-10T03:36:10.095Z,9.4
2022-11-10T03:37:10.670Z,9.4
2022-11-10T03:38:11.095Z,9.4
2022-11-10T03:39:11.511Z,9.4
2022-11-10T03:40:11.923Z,9.4
2022-11-10T03:41:20.647Z,9.4
2022-11-10T03:42:21.418Z,9.4
2022-11-10T03:43:22.226Z,9.4
2022-11-10T03:44:23.011Z,9.4
2022-11-10T03:45:23.427Z,9.4
2022-11-10T03:46:23.839Z,9.4
2022-11-10T03:47:24.353Z,9.4
2022-11-10T03:48:24.763Z,9.4
2022-11-10T03:49:25.172Z,9.4
2022-11-10T03:50:25.601Z,9.4
2022-11-10T03:51:26.051Z,9.4
2022-11-10T03:52:26.490Z,9.4
2022-11-10T03:53:26.902Z,9.4
2022-11-10T03:54:27.317Z,9.4
2022-11-10T03:55:27.735Z,9.4
2022-11-10T03:56:28.151Z,9.4
2022-11-10T03:57:28.673Z,9.4
2022-11-10T03:58:29.080Z,9.4
2022-11-10T03:59:29.604Z,9.4
2022-11-10T04:00:30.007Z,9.4
2022-11-10T04:01:30.490Z,9.4
2022-11-10T04:02:31.032Z,9.4
2022-11-10T04:03:31.452Z,9.4
2022-11-10T04:04:31.869Z,9.4
2022-11-10T04:05:32.285Z,9.4
2022-11-10T04:06:32.784Z,9.4
2022-11-10T04:07:33.328Z,9.4
2022-11-10T04:08:33.750Z,9.4
2022-11-10T04:09:34.162Z,9.4
2022-11-10T04:10:34.579Z,9.4
2022-11-10T04:11:34.985Z,9.4
2022-11-10T04:12:35.412Z,9.4
2022-11-10T04:13:35.827Z,9.4
2022-11-10T04:14:36.395Z,9.4
2022-11-10T04:15:36.803Z,9.4
2022-11-10T04:16:37.214Z,9.4
2022-11-10T04:17:37.652Z,9.4
2022-11-10T04:18:38.061Z,9.4
2022-11-10T04:19:38.466Z,9.4
2022-11-10T04:20:38.873Z,9.4
2022-11-10T04:21:39.281Z,9.4
2022-11-10T04:22:39.871Z,9.4
2022-11-10T04:23:40.286Z,9.4
2022-11-10T04:24:40.698Z,9.4
2022-11-10T04:25:41.106Z,9.4
2022-11-10T04:26:41.518Z,9.4
2022-11-10T04:27:41.953Z,9.4
2022-11-10T04:28:42.366Z,9.4
2022-11-10T04:29:42.813Z,9.4
2022-11-10T04:30:43.222Z,9.4
2022-11-10T04:31:43.640Z,9.4
2022-11-10T04:32:44.072Z,9.4
2022-11-10T04:33:44.485Z,9.4
2022-11-10T04:34:44.894Z,9.4
2022-11-10T04:35:45.310Z,9.4
2022-11-10T04:36:45.721Z,9.4
2022-11-10T04:37:46.240Z,9.4
2022-11-10T04:38:46.645Z,9.4
2022-11-10T04:39:47.054Z,9.4
2022-11-10T04:40:47.496Z,9.4
2022-11-10T04:41:47.919Z,9.4
2022-11-10T04:42:48.337Z,9.4
2022-11-10T04:43:48.755Z,9.4
2022-11-10T04:44:49.202Z,9.4
2022-11-10T04:45:49.621Z,9.4
2022-11-10T04:46:50.029Z,9.4
2022-11-10T04:47:50.472Z,9.4
2022-11-10T04:48:50.891Z,9.4
2022-11-10T04:49:51.316Z,9.4
2022-11-10T04:50:51.726Z,9.4
2022-11-10T04:51:52.216Z,9.4
2022-11-10T04:52:52.686Z,9.4
2022-11-10T04:53:53.099Z,9.4
2022-11-10T04:54:53.504Z,9.4
2022-11-10T04:55:53.903Z,9.4
2022-11-10T04:56:54.320Z,9.4
2022-11-10T04:57:54.747Z,9.4
2022-11-10T04:58:55.155Z,9.4
2022-11-10T04:59:55.600Z,9.4
2022-11-10T05:00:56.055Z,9.4
2022-11-10T05:01:56.532Z,9.4
2022-11-10T05:02:56.961Z,9.4
2022-11-10T05:03:57.381Z,9.4
2022-11-10T05:04:57.790Z,9.4
2022-11-10T05:05:58.203Z,9.4
2022-11-10T05:06:58.703Z,9.4
2022-11-10T05:07:59.173Z,9.4
2022-11-10T05:08:59.579Z,9.4
2022-11-10T05:09:59.987Z,9.4
2022-11-10T05:11:00.407Z,9.4
2022-11-10T05:12:00.782Z,9.4
2022-11-10T05:13:01.298Z,9.4
2022-11-10T05:14:01.667Z,9.4
2022-11-10T05:15:02.186Z,9.4
2022-11-10T05:16:02.605Z,9.4
2022-11-10T05:17:03.016Z,9.4
2022-11-10T05:18:03.543Z,9.4
2022-11-10T05:19:03.955Z,9.4
2022-11-10T05:20:04.379Z,9.4
2022-11-10T05:21:04.804Z,9.4
2022-11-10T05:22:05.221Z,9.4
2022-11-10T05:23:05.747Z,9.4
2022-11-10T05:24:06.168Z,9.4
2022-11-10T05:25:06.592Z,9.4
2022-11-10T05:26:07.032Z,9.4
2022-11-10T05:27:07.444Z,9.4
2022-11-10T05:28:08.030Z,9.4
2022-11-10T05:29:08.460Z,9.4
2022-11-10T05:30:08.893Z,9.4
2022-11-10T05:31:09.308Z,9.4
2022-11-10T05:32:09.737Z,9.4
2022-11-10T05:33:10.173Z,9.4
2022-11-10T05:34:10.588Z,9.4
2022-11-10T05:35:10.999Z,9.4
2022-11-10T05:36:11.408Z,9.4
2022-11-10T05:37:11.822Z,9.4
2022-11-10T05:38:12.354Z,9.4
2022-11-10T05:39:12.767Z,9.4
2022-11-10T05:40:13.174Z,9.4
2022-11-10T05:41:13.592Z,9.4
2022-11-10T05:42:14.004Z,9.4
2022-11-10T05:43:14.440Z,9.4
2022-11-10T05:44:14.877Z,9.4
2022-11-10T05:45:15.319Z,9.4
2022-11-10T05:46:15.726Z,9.4
2022-11-10T05:47:16.134Z,9.4
2022-11-10T05:48:16.703Z,9.4
2022-11-10T05:49:17.121Z,9.4
2022-11-10T05:50:17.542Z,9.4
2022-11-10T05:51:17.950Z,9.4
2022-11-10T05:52:18.361Z,9.4
2022-11-10T05:53:19.107Z,9.4
2022-11-10T05:54:19.651Z,9.4
2022-11-10T05:55:20.057Z,9.4
2022-11-10T05:56:20.460Z,9.4
2022-11-10T05:57:20.886Z,9.4
2022-11-10T05:58:21.470Z,9.4
2022-11-10T05:59:21.875Z,9.4
2022-11-10T06:00:22.406Z,9.4
2022-11-10T06:01:22.825Z,9.4
2022-11-10T06:02:23.245Z,9.4
2022-11-10T06:03:24.261Z,9.4
2022-11-10T06:04:24.938Z,9.4
2022-11-10T06:05:29.818Z,9.4
2022-11-10T06:06:31.731Z,9.4
2022-11-10T06:07:32.178Z,9.4
2022-11-10T06:08:32.611Z,9.4
2022-11-10T06:09:33.012Z,9.4
2022-11-10T06:10:33.428Z,9.4
2022-11-10T06:11:33.841Z,9.4
2022-11-10T06:12:34.247Z,9.4
2022-11-10T06:13:34.690Z,9.4
2022-11-10T06:14:35.110Z,9.4
2022-11-10T06:15:35.543Z,9.4
2022-11-10T06:16:35.961Z,9.4
2022-11-10T06:17:36.376Z,9.4
2022-11-10T06:18:36.899Z,9.4
2022-11-10T06:19:37.304Z,9.4
2022-11-10T06:20:37.714Z,9.4
2022-11-10T06:21:38.126Z,9.4
2022-11-10T06:22:38.541Z,9.4
2022-11-10T06:23:39.053Z,9.4
2022-11-10T06:24:39.463Z,9.4
2022-11-10T06:25:39.873Z,9.4
2022-11-10T06:26:40.305Z,9.4
2022-11-10T06:27:40.917Z,9.4
2022-11-10T06:28:41.418Z,9.4
2022-11-10T06:29:41.839Z,9.4
2022-11-10T06:30:42.285Z,9.4
2022-11-10T06:31:42.695Z,9.4
2022-11-10T06:32:43.107Z,9.4
2022-11-10T06:33:43.628Z,9.4
2022-11-10T06:34:44.044Z,9.4
2022-11-10T06:35:44.496Z,9.4
2022-11-10T06:36:44.915Z,9.4
2022-11-10T06:37:45.331Z,9.4
2022-11-10T06:38:45.773Z,9.4
2022-11-10T06:39:46.198Z,9.4
2022-11-10T06:40:46.643Z,9.4
2022-11-10T06:41:47.060Z,9.4
2022-11-10T06:42:47.505Z,9.4
2022-11-10T06:43:47.930Z,9.4
2022-11-10T06:44:48.332Z,9.4
2022-11-10T06:45:48.775Z,9.4
2022-11-10T06:46:49.212Z,9.4
2022-11-10T06:47:49.632Z,9.4
2022-11-10T06:48:50.048Z,9.4
2022-11-10T06:49:50.470Z,9.4
2022-11-10T06:50:50.910Z,9.4
2022-11-10T06:51:51.289Z,9.4
2022-11-10T06:52:51.712Z,9.4
2022-11-10T06:53:52.132Z,9.4
2022-11-10T06:54:52.571Z,9.4
2022-11-10T06:55:53.152Z,9.4
2022-11-10T06:56:53.545Z,9.4
2022-11-10T06:57:53.963Z,9.4
2022-11-10T06:58:54.376Z,9.4
2022-11-10T06:59:54.786Z,9.4
2022-11-10T07:00:55.353Z,9.4
2022-11-10T07:01:55.803Z,9.4
2022-11-10T07:02:56.221Z,9.4
2022-11-10T07:04:18.283Z,9.4
2022-11-10T07:05:19.931Z,9.4
2022-11-10T07:06:20.365Z,9.4
2022-11-10T07:07:20.782Z,9.4
2022-11-10T07:08:21.185Z,9.4
2022-11-10T07:09:21.599Z,9.4
2022-11-10T07:10:22.012Z,9.4
2022-11-10T07:11:22.599Z,9.4
2022-11-10T07:12:23.014Z,9.4
2022-11-10T07:13:23.854Z,9.4
2022-11-10T07:14:24.639Z,9.4
2022-11-10T07:15:25.052Z,9.4
2022-11-10T07:16:30.511Z,9.4
2022-11-10T07:17:30.918Z,9.4
2022-11-10T07:18:31.321Z,9.4
2022-11-10T07:19:31.728Z,9.4
2022-11-10T07:20:32.135Z,9.4
2022-11-10T07:21:32.571Z,9.4
2022-11-10T07:22:32.980Z,9.4
2022-11-10T07:23:33.377Z,9.4
2022-11-10T07:24:33.790Z,9.4
2022-11-10T07:25:34.213Z,9.4
2022-11-10T07:26:34.657Z,9.4
2022-11-10T07:27:35.081Z,9.4
2022-11-10T07:28:35.491Z,9.4
2022-11-10T07:29:35.898Z,9.4
2022-11-10T07:30:36.307Z,9.4
2022-11-10T07:31:36.741Z,9.4
2022-11-10T07:32:37.154Z,9.4
2022-11-10T07:33:37.572Z,9.4
2022-11-10T07:34:37.976Z,9.4
2022-11-10T07:35:38.386Z,9.4
2022-11-10T07:36:38.906Z,9.4
2022-11-10T07:37:39.315Z,9.4
2022-11-10T07:38:39.758Z,9.4
2022-11-10T07:39:40.171Z,9.4
2022-11-10T07:40:40.589Z,9.4
2022-11-10T07:41:41.015Z,9.4
2022-11-10T07:42:41.425Z,9.4
2022-11-10T07:43:41.840Z,9.4
2022-11-10T07:44:42.249Z,9.4
2022-11-10T07:45:42.661Z,9.4
2022-11-10T07:46:43.173Z,9.4
2022-11-10T07:47:43.581Z,9.4
2022-11-10T07:48:44.005Z,9.4
2022-11-10T07:49:44.418Z,9.4
2022-11-10T07:50:44.826Z,9.4
2022-11-10T07:51:45.407Z,9.4
2022-11-10T07:52:45.830Z,9.4
2022-11-10T07:53:46.237Z,9.4
2022-11-10T07:54:46.639Z,9.4
2022-11-10T07:55:47.053Z,9.4
2022-11-10T07:56:47.497Z,9.4
2022-11-10T07:57:47.936Z,9.4
2022-11-10T07:58:48.328Z,9.4
2022-11-10T07:59:51.675Z,9.4
2022-11-10T08:00:53.254Z,9.4
2022-11-10T08:01:53.731Z,9.4
2022-11-10T08:02:54.206Z,9.4
2022-11-10T08:03:55.091Z,9.4
2022-11-10T08:04:55.511Z,9.4
2022-11-10T08:05:55.923Z,9.4
2022-11-10T08:06:56.482Z,9.4
2022-11-10T08:07:56.987Z,9.4
2022-11-10T08:08:57.469Z,9.4
2022-11-10T08:09:57.872Z,9.4
2022-11-10T08:10:58.289Z,9.4
2022-11-10T08:11:58.808Z,9.4
2022-11-10T08:12:59.218Z,9.4
2022-11-10T08:13:59.625Z,9.4
2022-11-10T08:15:00.039Z,9.4
2022-11-10T08:16:00.440Z,9.4
2022-11-10T08:17:00.941Z,9.4
2022-11-10T08:18:01.366Z,9.4
2022-11-10T08:19:01.740Z,9.4
2022-11-10T08:20:02.162Z,9.4
2022-11-10T08:21:02.588Z,9.4
2022-11-10T08:22:03.131Z,9.4
2022-11-10T08:23:03.579Z,9.4
2022-11-10T08:24:03.991Z,9.4
2022-11-10T08:25:04.398Z,9.4
2022-11-10T08:26:04.812Z,9.4
2022-11-10T08:27:05.238Z,9.4
2022-11-10T08:28:05.644Z,9.4
2022-11-10T08:29:06.531Z,9.4
2022-11-10T08:30:06.945Z,9.4
2022-11-10T08:31:07.366Z,9.4
2022-11-10T08:32:07.890Z,9.4
2022-11-10T08:33:08.298Z,9.4
2022-11-10T08:34:08.700Z,9.4
2022-11-10T08:35:09.107Z,9.4
2022-11-10T08:36:09.513Z,9.4
2022-11-10T08:37:09.943Z,9.4
2022-11-10T08:38:10.347Z,9.4
2022-11-10T08:39:10.762Z,9.4
2022-11-10T08:40:11.206Z,9.4
2022-11-10T08:41:11.621Z,9.4
2022-11-10T08:42:12.057Z,9.4
2022-11-10T08:43:12.480Z,9.4
2022-11-10T08:44:16.745Z,9.4
2022-11-10T08:45:20.166Z,9.4
2022-11-10T08:46:20.580Z,9.4
2022-11-10T08:47:21.173Z,9.4
2022-11-10T08:48:21.589Z,9.4
2022-11-10T08:49:21.997Z,9.4
2022-11-10T08:50:22.407Z,9.4
2022-11-10T08:51:22.860Z,9.4
2022-11-10T08:52:23.458Z,9.4
2022-11-10T08:53:24.460Z,9.4
2022-11-10T08:54:25.194Z,9.4
2022-11-10T08:55:25.609Z,9.4
2022-11-10T08:56:26.024Z,9.4
2022-11-10T08:57:26.460Z,9.4
2022-11-10T08:58:26.889Z,9.4
2022-11-10T08:59:27.304Z,9.4
2022-11-10T09:00:27.760Z,9.4
2022-11-10T09:01:28.188Z,9.4
2022-11-10T09:02:28.768Z,9.4
2022-11-10T09:03:29.180Z,9.4
2022-11-10T09:04:29.634Z,9.4
2022-11-10T09:05:30.074Z,9.4
2022-11-10T09:06:30.649Z,9.4
2022-11-10T09:07:31.236Z,9.4
2022-11-10T09:08:31.648Z,9.4
2022-11-10T09:09:32.053Z,9.4
2022-11-10T09:10:32.469Z,9.4
2022-11-10T09:11:32.880Z,9.4
2022-11-10T09:12:33.309Z,9.4
2022-11-10T09:13:34.092Z,9.4
2022-11-10T09:14:34.774Z,9.4
2022-11-10T09:15:35.190Z,9.4
2022-11-10T09:16:35.605Z,9.4
2022-11-10T09:17:36.040Z,9.4
2022-11-10T09:18:36.473Z,9.4
2022-11-10T09:19:36.945Z,9.4
2022-11-10T09:20:37.367Z,9.4
2022-11-10T09:21:37.782Z,9.4
2022-11-10T09:22:38.232Z,9.4
2022-11-10T09:23:38.646Z,9.4
2022-11-10T09:24:39.062Z,9.4
2022-11-10T09:25:39.483Z,9.4
2022-11-10T09:26:39.913Z,9.4
2022-11-10T09:27:40.366Z,9.4
2022-11-10T09:28:40.777Z,9.4
2022-11-10T09:29:41.190Z,9.4
2022-11-10T09:30:41.603Z,9.4
2022-11-10T09:31:42.031Z,9.4
2022-11-10T09:33:42.949Z,11.6
2022-11-10T09:34:44.798Z,11.6
2022-11-10T09:35:46.998Z,11.6
2022-11-10T09:36:47.430Z,11.7
2022-11-10T09:37:47.860Z,11.7
2022-11-10T09:38:48.426Z,11.7
2022-11-10T09:39:48.847Z,11.7
2022-11-10T09:40:49.289Z,11.8
2022-11-10T09:41:49.703Z,11.8
2022-11-10T09:42:50.085Z,11.8
2022-11-10T09:43:50.528Z,11.8
2022-11-10T09:44:50.919Z,11.8
2022-11-10T09:45:51.316Z,11.9
2022-11-10T09:46:51.759Z,11.9
2022-11-10T09:47:57.828Z,12
2022-11-10T09:48:58.925Z,12
2022-11-10T09:49:59.349Z,12
2022-11-10T09:50:59.761Z,12
2022-11-10T09:52:00.181Z,12.1
2022-11-10T09:53:00.578Z,12.1
2022-11-10T09:54:01.001Z,12.1
2022-11-10T09:55:01.422Z,12.2
2022-11-10T09:56:01.829Z,12.2
2022-11-10T09:57:02.235Z,12.2
2022-11-10T09:58:02.614Z,12.2
2022-11-10T09:59:03.103Z,12.2
2022-11-10T10:00:03.518Z,12.3
2022-11-10T10:01:03.999Z,12.3
2022-11-10T10:02:04.450Z,12.3
2022-11-10T10:03:04.869Z,12.3
2022-11-10T10:04:05.455Z,12.4
2022-11-10T10:05:05.882Z,12.4
2022-11-10T10:06:06.259Z,12.4
2022-11-10T10:07:11.167Z,12.5
2022-11-10T10:08:12.086Z,12.5
2022-11-10T10:09:12.672Z,12.5
2022-11-10T10:10:16.113Z,12.5
2022-11-10T10:11:17.847Z,12.6
2022-11-10T10:12:18.261Z,12.6
2022-11-10T10:13:18.672Z,12.6
2022-11-10T10:14:19.072Z,12.7
2022-11-10T10:15:19.485Z,12.7
2022-11-10T10:16:19.901Z,12.7
2022-11-10T10:17:23.607Z,12.8
2022-11-10T10:18:26.520Z,12.8
2022-11-10T10:19:27.099Z,12.8
2022-11-10T10:20:27.480Z,12.8
2022-11-10T10:21:27.908Z,12.9
2022-11-10T10:22:28.325Z,12.9
2022-11-10T10:23:54.003Z,12.9
2022-11-10T10:25:03.067Z,13
2022-11-10T10:26:03.479Z,13
2022-11-10T10:27:03.857Z,13
2022-11-10T10:28:04.246Z,13.1
2022-11-10T10:29:04.635Z,13.1
2022-11-10T10:30:05.133Z,13.1
2022-11-10T10:31:05.566Z,13.1
2022-11-10T10:32:05.954Z,13.1
2022-11-10T10:33:06.373Z,13.2
2022-11-10T10:34:06.807Z,13.2
2022-11-10T10:35:07.294Z,13.2
2022-11-10T10:36:07.676Z,13.3
2022-11-10T10:37:08.125Z,13.3
2022-11-10T10:38:08.524Z,13.4
2022-11-10T10:39:08.900Z,13.4
2022-11-10T10:40:09.396Z,13.4
2022-11-10T10:41:09.793Z,13.5
2022-11-10T10:42:10.197Z,13.5
2022-11-10T10:43:10.616Z,13.5
2022-11-10T10:44:11.046Z,13.6
2022-11-10T10:45:11.606Z,13.6
2022-11-10T10:46:12.033Z,13.6
2022-11-10T10:47:12.463Z,13.7
2022-11-10T10:48:12.852Z,13.7
2022-11-10T10:49:29.095Z,13.7
2022-11-10T10:50:30.011Z,13.7
2022-11-10T10:51:30.396Z,13.7
2022-11-10T10:52:30.790Z,13.8
2022-11-10T10:53:31.190Z,13.8
2022-11-10T10:54:31.615Z,13.9
2022-11-10T10:55:32.224Z,13.9
2022-11-10T10:56:32.633Z,13.9
2022-11-10T10:57:33.055Z,14
2022-11-10T10:58:33.474Z,14
2022-11-10T10:59:33.875Z,14.1
2022-11-10T11:00:34.396Z,14.1
2022-11-10T11:01:34.813Z,14.1
2022-11-10T11:02:35.231Z,14.2
2022-11-10T11:03:35.608Z,14.3
2022-11-10T11:04:35.978Z,14.3
2022-11-10T11:05:36.412Z,14.3
2022-11-10T11:06:36.876Z,14.4
2022-11-10T11:07:37.285Z,14.5
2022-11-10T11:08:37.663Z,14.5
2022-11-10T11:09:38.083Z,14.5
2022-11-10T11:10:38.525Z,14.6
2022-11-10T11:11:38.915Z,14.5
2022-11-10T11:12:39.325Z,14.5
2022-11-10T11:13:39.762Z,14.5
2022-11-10T11:14:45.613Z,14.5
2022-11-10T11:15:46.716Z,14.5
2022-11-10T11:16:47.127Z,14.6
2022-11-10T11:17:47.656Z,14.6
2022-11-10T11:18:48.077Z,14.5
2022-11-10T11:19:48.487Z,14.5
2022-11-10T11:20:49.037Z,14.6
2022-11-10T11:21:49.417Z,14.5
2022-11-10T11:22:49.793Z,14.5
2022-11-10T11:23:50.203Z,14.5
2022-11-10T11:24:50.621Z,14.5
2022-11-10T11:25:51.028Z,14.5
2022-11-10T11:26:51.410Z,14.6
2022-11-10T11:27:51.862Z,14.6
2022-11-10T11:28:52.250Z,14.7
2022-11-10T11:29:52.630Z,14.7
2022-11-10T11:30:53.108Z,14.7
2022-11-10T11:31:53.517Z,14.7
2022-11-10T11:32:53.908Z,14.7
2022-11-10T11:33:54.325Z,14.7
2022-11-10T11:34:54.745Z,14.8
2022-11-10T11:35:55.280Z,14.8
2022-11-10T11:36:55.701Z,14.8
2022-11-10T11:37:56.128Z,14.9
2022-11-10T11:38:56.556Z,14.9
2022-11-10T11:39:56.940Z,14.9
2022-11-10T11:40:57.481Z,14.9
2022-11-10T11:41:57.861Z,14.9
2022-11-10T11:42:58.240Z,15
2022-11-10T11:43:58.647Z,15.1
2022-11-10T11:44:59.059Z,15.1
2022-11-10T11:45:59.605Z,15
2022-11-10T11:46:59.984Z,15
2022-11-10T11:48:00.399Z,15
2022-11-10T11:49:00.774Z,14.9
2022-11-10T11:50:01.209Z,14.9
2022-11-10T11:51:01.694Z,15
2022-11-10T11:52:02.106Z,15
2022-11-10T11:53:02.483Z,15
2022-11-10T11:54:02.905Z,14.9
2022-11-10T11:55:03.331Z,14.9
2022-11-10T11:56:03.829Z,14.9
2022-11-10T11:57:04.236Z,14.9
2022-11-10T11:58:04.652Z,14.9
2022-11-10T11:59:05.044Z,14.9
2022-11-10T12:00:05.460Z,15
2022-11-10T12:01:05.962Z,15
2022-11-10T12:02:06.419Z,15
2022-11-10T12:03:06.884Z,15
2022-11-10T12:04:07.298Z,15
2022-11-10T12:05:07.717Z,15.1
2022-11-10T12:06:08.243Z,15.1
2022-11-10T12:07:08.745Z,15.1
2022-11-10T12:08:09.194Z,15.1
2022-11-10T12:09:09.594Z,15.1
2022-11-10T12:10:10.021Z,15.1
2022-11-10T12:11:10.433Z,15.1
2022-11-10T12:12:10.838Z,15.1
2022-11-10T12:13:11.240Z,15.1
2022-11-10T12:14:11.650Z,15.1
2022-11-10T12:15:12.074Z,15.1
2022-11-10T12:16:12.532Z,15.1
2022-11-10T12:17:12.928Z,15.1
2022-11-10T12:18:13.335Z,15.1
2022-11-10T12:19:13.733Z,15.1
2022-11-10T12:20:14.321Z,15.1
2022-11-10T12:21:14.856Z,15.1
2022-11-10T12:22:15.264Z,15.1
2022-11-10T12:23:15.671Z,15.1
2022-11-10T12:24:16.112Z,15.1
2022-11-10T12:25:16.673Z,15.1
2022-11-10T12:26:17.125Z,15.1
2022-11-10T12:27:17.582Z,15.1
2022-11-10T12:28:18.012Z,15.1
2022-11-10T12:29:18.783Z,15.1
2022-11-10T12:30:19.504Z,15.1
2022-11-10T12:31:20.083Z,15.1
2022-11-10T12:32:20.488Z,15.1
2022-11-10T12:33:20.977Z,15.1
2022-11-10T12:34:21.465Z,15.1
2022-11-10T12:35:21.906Z,15.1
2022-11-10T12:36:22.517Z,15.1
2022-11-10T12:37:27.667Z,15.1
2022-11-10T12:38:28.489Z,15.1
2022-11-10T12:39:28.902Z,15.1
2022-11-10T12:40:29.317Z,15.1
2022-11-10T12:41:29.839Z,15.1
2022-11-10T12:42:30.258Z,15.1
2022-11-10T12:43:30.750Z,15.1
2022-11-10T12:44:31.279Z,15.1
2022-11-10T12:45:31.714Z,15.1
2022-11-10T12:46:32.315Z,15.1
2022-11-10T12:47:32.715Z,15.1
2022-11-10T12:48:33.125Z,15.1
2022-11-10T12:49:33.556Z,15.1
2022-11-10T12:50:33.982Z,15.1
2022-11-10T12:51:34.510Z,15.1
2022-11-10T12:52:34.906Z,15.1
2022-11-10T12:53:35.381Z,15.1
2022-11-10T12:54:35.857Z,15.1
2022-11-10T12:55:36.296Z,15.1
2022-11-10T12:56:36.723Z,15.1
2022-11-10T12:57:37.301Z,15.1
2022-11-10T12:58:37.843Z,15.1
2022-11-10T12:59:38.283Z,15.1
2022-11-10T13:00:38.854Z,15.1
2022-11-10T13:01:39.960Z,15.1
2022-11-10T13:02:40.411Z,15.1
2022-11-10T13:03:40.919Z,15.1
2022-11-10T13:04:41.487Z,15.1
2022-11-10T13:05:41.987Z,15.1
2022-11-10T13:06:42.469Z,15.1
2022-11-10T13:07:42.921Z,15.1
2022-11-10T13:08:43.401Z,15.1
2022-11-10T13:09:43.918Z,15.1
2022-11-10T13:10:44.322Z,15.1
2022-11-10T13:11:44.991Z,15.1
2022-11-10T13:12:45.401Z,15.1
2022-11-10T13:13:45.813Z,15.1
2022-11-10T13:14:46.293Z,15.1
2022-11-10T13:15:46.756Z,15.1
2022-11-10T13:16:47.181Z,15.1
2022-11-10T13:17:47.829Z,15.1
2022-11-10T13:18:48.280Z,15.1
2022-11-10T13:19:48.805Z,15.1
2022-11-10T13:20:49.271Z,15.1
2022-11-10T13:21:49.856Z,15.1
2022-11-10T13:22:50.471Z,15.1
2022-11-10T13:23:50.907Z,15.1
2022-11-10T13:24:51.513Z,15.1
2022-11-10T13:25:51.976Z,15.1
2022-11-10T13:26:52.509Z,15.1
2022-11-10T13:27:52.989Z,15.1
2022-11-10T13:28:53.480Z,15.1
2022-11-10T13:29:53.881Z,15.1
2022-11-10T13:30:54.364Z,15.1
2022-11-10T13:31:54.970Z,15.1
2022-11-10T13:32:55.536Z,15.1
2022-11-10T13:33:55.934Z,15.1
2022-11-10T13:34:56.330Z,15.1
2022-11-10T13:35:56.835Z,15.1
2022-11-10T13:36:57.428Z,15.1
2022-11-10T13:37:57.916Z,15.1
2022-11-10T13:38:58.327Z,15.1
2022-11-10T13:39:58.728Z,15.1
2022-11-10T13:40:59.188Z,15.1
2022-11-10T13:41:59.636Z,15.1
2022-11-10T13:43:00.076Z,15.1
2022-11-10T13:44:00.750Z,15.1
2022-11-10T13:45:01.169Z,15.1